sensor_id;sensor_type;location;lat;lon;timestamp;P1;durP1;ratioP1;P2;durP2;ratioP2
21181;SDS011;10749;46.296;7.524;2023-06-14T00:02:03;2.75;;;2.50;;
21181;SDS011;10749;46.296;7.524;2023-06-14T00:04:29;2.88;;;2.58;;
21181;SDS011;10749;46.296;7.524;2023-06-14T00:06:55;2.47;;;2.17;;
21181;SDS011;10749;46.296;7.524;2023-06-14T00:09:21;4.95;;;2.80;;
21181;SDS011;10749;46.296;7.524;2023-06-14T00:11:48;2.83;;;2.53;;
21181;SDS011;10749;46.296;7.524;2023-06-14T00:14:13;2.83;;;2.30;;
21181;SDS011;10749;46.296;7.524;2023-06-14T00:16:39;3.25;;;2.35;;
21181;SDS011;10749;46.296;7.524;2023-06-14T00:19:07;3.00;;;2.70;;
21181;SDS011;10749;46.296;7.524;2023-06-14T00:21:36;4.40;;;2.75;;
21181;SDS011;10749;46.296;7.524;2023-06-14T00:24:02;2.78;;;2.40;;
21181;SDS011;10749;46.296;7.524;2023-06-14T00:26:28;3.38;;;2.55;;
21181;SDS011;10749;46.296;7.524;2023-06-14T00:28:54;2.97;;;2.55;;
21181;SDS011;10749;46.296;7.524;2023-06-14T00:31:20;3.15;;;2.72;;
21181;SDS011;10749;46.296;7.524;2023-06-14T00:33:45;3.55;;;2.50;;
21181;SDS011;10749;46.296;7.524;2023-06-14T00:36:11;4.15;;;2.75;;
21181;SDS011;10749;46.296;7.524;2023-06-14T00:38:36;4.10;;;2.75;;
21181;SDS011;10749;46.296;7.524;2023-06-14T00:41:01;4.63;;;3.05;;
21181;SDS011;10749;46.296;7.524;2023-06-14T00:43:27;3.60;;;2.45;;
21181;SDS011;10749;46.296;7.524;2023-06-14T00:45:52;2.90;;;2.60;;
21181;SDS011;10749;46.296;7.524;2023-06-14T00:48:17;3.22;;;2.58;;
21181;SDS011;10749;46.296;7.524;2023-06-14T00:50:43;3.42;;;2.50;;
21181;SDS011;10749;46.296;7.524;2023-06-14T00:53:13;3.13;;;2.83;;
21181;SDS011;10749;46.296;7.524;2023-06-14T00:55:40;3.05;;;2.75;;
21181;SDS011;10749;46.296;7.524;2023-06-14T00:58:06;2.90;;;2.60;;
21181;SDS011;10749;46.296;7.524;2023-06-14T01:00:31;3.40;;;2.75;;
21181;SDS011;10749;46.296;7.524;2023-06-14T01:02:56;3.90;;;2.50;;
21181;SDS011;10749;46.296;7.524;2023-06-14T01:05:22;3.85;;;2.80;;
21181;SDS011;10749;46.296;7.524;2023-06-14T01:08:05;4.22;;;3.10;;
21181;SDS011;10749;46.296;7.524;2023-06-14T01:10:53;3.22;;;2.75;;
21181;SDS011;10749;46.296;7.524;2023-06-14T01:13:31;4.10;;;2.60;;
21181;SDS011;10749;46.296;7.524;2023-06-14T01:15:59;3.42;;;2.83;;
21181;SDS011;10749;46.296;7.524;2023-06-14T01:18:25;3.17;;;2.50;;
21181;SDS011;10749;46.296;7.524;2023-06-14T01:20:54;3.10;;;2.60;;
21181;SDS011;10749;46.296;7.524;2023-06-14T01:23:21;2.83;;;2.53;;
21181;SDS011;10749;46.296;7.524;2023-06-14T01:25:48;2.60;;;2.40;;
21181;SDS011;10749;46.296;7.524;2023-06-14T01:28:17;2.70;;;2.45;;
21181;SDS011;10749;46.296;7.524;2023-06-14T01:30:45;4.03;;;2.72;;
21181;SDS011;10749;46.296;7.524;2023-06-14T01:33:18;4.40;;;2.55;;
21181;SDS011;10749;46.296;7.524;2023-06-14T01:35:47;3.60;;;2.78;;
21181;SDS011;10749;46.296;7.524;2023-06-14T01:38:15;3.80;;;2.40;;
21181;SDS011;10749;46.296;7.524;2023-06-14T01:40:45;3.40;;;2.65;;
21181;SDS011;10749;46.296;7.524;2023-06-14T01:43:14;4.80;;;2.70;;
21181;SDS011;10749;46.296;7.524;2023-06-14T01:45:41;5.88;;;3.03;;
21181;SDS011;10749;46.296;7.524;2023-06-14T01:48:08;4.00;;;2.58;;
21181;SDS011;10749;46.296;7.524;2023-06-14T01:50:34;4.38;;;2.80;;
21181;SDS011;10749;46.296;7.524;2023-06-14T01:52:59;4.47;;;2.95;;
21181;SDS011;10749;46.296;7.524;2023-06-14T01:55:25;4.80;;;2.90;;
21181;SDS011;10749;46.296;7.524;2023-06-14T01:57:51;3.05;;;2.75;;
21181;SDS011;10749;46.296;7.524;2023-06-14T02:00:17;4.18;;;2.83;;
21181;SDS011;10749;46.296;7.524;2023-06-14T02:02:43;3.65;;;2.75;;
21181;SDS011;10749;46.296;7.524;2023-06-14T02:05:08;4.82;;;2.85;;
21181;SDS011;10749;46.296;7.524;2023-06-14T02:07:35;3.40;;;2.20;;
21181;SDS011;10749;46.296;7.524;2023-06-14T02:10:00;3.20;;;2.90;;
21181;SDS011;10749;46.296;7.524;2023-06-14T02:12:26;2.83;;;2.47;;
21181;SDS011;10749;46.296;7.524;2023-06-14T02:14:51;4.28;;;2.72;;
21181;SDS011;10749;46.296;7.524;2023-06-14T02:17:16;3.25;;;2.95;;
21181;SDS011;10749;46.296;7.524;2023-06-14T02:19:42;4.63;;;2.85;;
21181;SDS011;10749;46.296;7.524;2023-06-14T02:22:07;3.35;;;2.83;;
21181;SDS011;10749;46.296;7.524;2023-06-14T02:24:33;4.55;;;3.05;;
21181;SDS011;10749;46.296;7.524;2023-06-14T02:26:58;3.17;;;2.60;;
21181;SDS011;10749;46.296;7.524;2023-06-14T02:29:23;5.03;;;2.92;;
21181;SDS011;10749;46.296;7.524;2023-06-14T02:31:49;3.28;;;2.92;;
21181;SDS011;10749;46.296;7.524;2023-06-14T02:34:14;4.78;;;2.70;;
21181;SDS011;10749;46.296;7.524;2023-06-14T02:36:42;2.90;;;2.60;;
21181;SDS011;10749;46.296;7.524;2023-06-14T02:39:08;4.03;;;3.03;;
21181;SDS011;10749;46.296;7.524;2023-06-14T02:41:36;4.03;;;2.65;;
21181;SDS011;10749;46.296;7.524;2023-06-14T02:44:02;3.58;;;2.80;;
21181;SDS011;10749;46.296;7.524;2023-06-14T02:46:28;4.38;;;2.58;;
21181;SDS011;10749;46.296;7.524;2023-06-14T02:48:53;4.00;;;3.10;;
21181;SDS011;10749;46.296;7.524;2023-06-14T02:51:18;3.30;;;2.40;;
21181;SDS011;10749;46.296;7.524;2023-06-14T02:53:44;3.05;;;2.72;;
21181;SDS011;10749;46.296;7.524;2023-06-14T02:56:09;3.78;;;2.53;;
21181;SDS011;10749;46.296;7.524;2023-06-14T02:58:36;2.75;;;2.55;;
21181;SDS011;10749;46.296;7.524;2023-06-14T03:01:02;4.03;;;2.72;;
21181;SDS011;10749;46.296;7.524;2023-06-14T03:03:28;4.15;;;3.05;;
21181;SDS011;10749;46.296;7.524;2023-06-14T03:05:53;3.42;;;2.80;;
21181;SDS011;10749;46.296;7.524;2023-06-14T03:08:19;3.80;;;2.65;;
21181;SDS011;10749;46.296;7.524;2023-06-14T03:10:45;3.67;;;2.78;;
21181;SDS011;10749;46.296;7.524;2023-06-14T03:13:12;4.03;;;2.80;;
21181;SDS011;10749;46.296;7.524;2023-06-14T03:15:38;3.25;;;2.95;;
21181;SDS011;10749;46.296;7.524;2023-06-14T03:18:07;3.58;;;2.67;;
21181;SDS011;10749;46.296;7.524;2023-06-14T03:20:34;3.50;;;2.80;;
21181;SDS011;10749;46.296;7.524;2023-06-14T03:23:00;5.30;;;3.50;;
21181;SDS011;10749;46.296;7.524;2023-06-14T03:25:27;4.80;;;3.30;;
21181;SDS011;10749;46.296;7.524;2023-06-14T03:27:54;4.45;;;3.17;;
21181;SDS011;10749;46.296;7.524;2023-06-14T03:30:20;7.07;;;3.20;;
21181;SDS011;10749;46.296;7.524;2023-06-14T03:32:45;3.60;;;3.03;;
21181;SDS011;10749;46.296;7.524;2023-06-14T03:35:10;5.55;;;3.10;;
21181;SDS011;10749;46.296;7.524;2023-06-14T03:37:42;3.70;;;2.47;;
21181;SDS011;10749;46.296;7.524;2023-06-14T03:40:11;5.63;;;2.72;;
21181;SDS011;10749;46.296;7.524;2023-06-14T03:42:37;4.63;;;2.55;;
21181;SDS011;10749;46.296;7.524;2023-06-14T03:45:03;3.00;;;2.65;;
21181;SDS011;10749;46.296;7.524;2023-06-14T03:47:29;4.63;;;2.88;;
21181;SDS011;10749;46.296;7.524;2023-06-14T03:49:54;3.38;;;3.00;;
21181;SDS011;10749;46.296;7.524;2023-06-14T03:52:20;4.45;;;2.78;;
21181;SDS011;10749;46.296;7.524;2023-06-14T03:54:46;4.65;;;3.00;;
21181;SDS011;10749;46.296;7.524;2023-06-14T03:57:11;3.35;;;2.92;;
21181;SDS011;10749;46.296;7.524;2023-06-14T03:59:36;4.68;;;3.03;;
21181;SDS011;10749;46.296;7.524;2023-06-14T04:02:02;3.17;;;2.88;;
21181;SDS011;10749;46.296;7.524;2023-06-14T04:04:27;5.07;;;3.08;;
21181;SDS011;10749;46.296;7.524;2023-06-14T04:06:55;6.65;;;3.05;;
21181;SDS011;10749;46.296;7.524;2023-06-14T04:09:21;4.72;;;3.03;;
21181;SDS011;10749;46.296;7.524;2023-06-14T04:11:49;5.25;;;3.15;;
21181;SDS011;10749;46.296;7.524;2023-06-14T04:14:15;4.25;;;2.85;;
21181;SDS011;10749;46.296;7.524;2023-06-14T04:16:40;5.43;;;2.88;;
21181;SDS011;10749;46.296;7.524;2023-06-14T04:19:06;3.72;;;3.15;;
21181;SDS011;10749;46.296;7.524;2023-06-14T04:21:31;5.35;;;2.95;;
21181;SDS011;10749;46.296;7.524;2023-06-14T04:23:59;3.88;;;2.58;;
21181;SDS011;10749;46.296;7.524;2023-06-14T04:26:26;3.72;;;2.50;;
21181;SDS011;10749;46.296;7.524;2023-06-14T04:28:54;3.53;;;2.92;;
21181;SDS011;10749;46.296;7.524;2023-06-14T04:31:21;5.05;;;3.17;;
21181;SDS011;10749;46.296;7.524;2023-06-14T04:33:50;4.30;;;3.25;;
21181;SDS011;10749;46.296;7.524;2023-06-14T04:36:15;3.17;;;2.83;;
21181;SDS011;10749;46.296;7.524;2023-06-14T04:38:42;4.05;;;2.97;;
21181;SDS011;10749;46.296;7.524;2023-06-14T04:41:10;3.92;;;2.70;;
21181;SDS011;10749;46.296;7.524;2023-06-14T04:43:36;4.03;;;3.10;;
21181;SDS011;10749;46.296;7.524;2023-06-14T04:46:03;7.60;;;3.78;;
21181;SDS011;10749;46.296;7.524;2023-06-14T04:48:35;4.75;;;3.38;;
21181;SDS011;10749;46.296;7.524;2023-06-14T04:51:05;4.47;;;3.42;;
21181;SDS011;10749;46.296;7.524;2023-06-14T04:53:32;5.57;;;3.50;;
21181;SDS011;10749;46.296;7.524;2023-06-14T04:55:57;7.13;;;3.60;;
21181;SDS011;10749;46.296;7.524;2023-06-14T04:58:22;3.65;;;3.35;;
21181;SDS011;10749;46.296;7.524;2023-06-14T05:00:47;4.30;;;3.33;;
21181;SDS011;10749;46.296;7.524;2023-06-14T05:03:13;4.70;;;3.38;;
21181;SDS011;10749;46.296;7.524;2023-06-14T05:05:39;6.80;;;3.70;;
21181;SDS011;10749;46.296;7.524;2023-06-14T05:08:05;3.80;;;3.38;;
21181;SDS011;10749;46.296;7.524;2023-06-14T05:10:31;5.13;;;3.72;;
21181;SDS011;10749;46.296;7.524;2023-06-14T05:12:56;5.82;;;3.40;;
21181;SDS011;10749;46.296;7.524;2023-06-14T05:15:21;5.63;;;3.50;;
21181;SDS011;10749;46.296;7.524;2023-06-14T05:17:50;4.68;;;3.35;;
21181;SDS011;10749;46.296;7.524;2023-06-14T05:20:20;4.13;;;3.17;;
21181;SDS011;10749;46.296;7.524;2023-06-14T05:22:47;3.88;;;3.20;;
21181;SDS011;10749;46.296;7.524;2023-06-14T05:25:15;3.83;;;2.92;;
21181;SDS011;10749;46.296;7.524;2023-06-14T05:27:40;4.45;;;3.35;;
21181;SDS011;10749;46.296;7.524;2023-06-14T05:30:07;5.60;;;3.75;;
21181;SDS011;10749;46.296;7.524;2023-06-14T05:32:33;4.95;;;3.70;;
21181;SDS011;10749;46.296;7.524;2023-06-14T05:34:59;4.90;;;3.22;;
21181;SDS011;10749;46.296;7.524;2023-06-14T05:37:24;4.22;;;3.83;;
21181;SDS011;10749;46.296;7.524;2023-06-14T05:39:50;5.35;;;4.20;;
21181;SDS011;10749;46.296;7.524;2023-06-14T05:42:15;8.02;;;4.22;;
21181;SDS011;10749;46.296;7.524;2023-06-14T05:44:40;8.13;;;4.20;;
21181;SDS011;10749;46.296;7.524;2023-06-14T05:47:06;8.30;;;4.18;;
21181;SDS011;10749;46.296;7.524;2023-06-14T05:49:31;9.15;;;4.30;;
21181;SDS011;10749;46.296;7.524;2023-06-14T05:51:56;4.32;;;3.58;;
21181;SDS011;10749;46.296;7.524;2023-06-14T05:54:22;5.85;;;3.75;;
21181;SDS011;10749;46.296;7.524;2023-06-14T05:56:47;5.88;;;3.85;;
21181;SDS011;10749;46.296;7.524;2023-06-14T05:59:12;4.82;;;4.18;;
21181;SDS011;10749;46.296;7.524;2023-06-14T06:01:37;8.75;;;4.22;;
21181;SDS011;10749;46.296;7.524;2023-06-14T06:04:05;6.03;;;3.95;;
21181;SDS011;10749;46.296;7.524;2023-06-14T06:06:30;6.68;;;4.22;;
21181;SDS011;10749;46.296;7.524;2023-06-14T06:08:55;5.75;;;3.90;;
21181;SDS011;10749;46.296;7.524;2023-06-14T06:11:21;6.68;;;4.20;;
21181;SDS011;10749;46.296;7.524;2023-06-14T06:13:46;5.75;;;4.00;;
21181;SDS011;10749;46.296;7.524;2023-06-14T06:16:11;5.75;;;4.30;;
21181;SDS011;10749;46.296;7.524;2023-06-14T06:18:36;6.10;;;4.13;;
21181;SDS011;10749;46.296;7.524;2023-06-14T06:21:03;6.97;;;4.38;;
21181;SDS011;10749;46.296;7.524;2023-06-14T06:23:29;6.20;;;4.47;;
21181;SDS011;10749;46.296;7.524;2023-06-14T06:25:54;6.32;;;3.97;;
21181;SDS011;10749;46.296;7.524;2023-06-14T06:28:19;6.75;;;4.43;;
21181;SDS011;10749;46.296;7.524;2023-06-14T06:30:45;5.70;;;3.95;;
21181;SDS011;10749;46.296;7.524;2023-06-14T06:33:10;4.75;;;3.88;;
21181;SDS011;10749;46.296;7.524;2023-06-14T06:35:36;4.88;;;3.33;;
21181;SDS011;10749;46.296;7.524;2023-06-14T06:38:02;3.83;;;3.30;;
21181;SDS011;10749;46.296;7.524;2023-06-14T06:40:27;8.27;;;3.50;;
21181;SDS011;10749;46.296;7.524;2023-06-14T06:42:53;6.47;;;3.80;;
21181;SDS011;10749;46.296;7.524;2023-06-14T06:45:19;5.35;;;3.63;;
21181;SDS011;10749;46.296;7.524;2023-06-14T06:47:44;5.50;;;3.90;;
21181;SDS011;10749;46.296;7.524;2023-06-14T06:50:10;4.80;;;3.40;;
21181;SDS011;10749;46.296;7.524;2023-06-14T06:52:35;5.15;;;3.42;;
21181;SDS011;10749;46.296;7.524;2023-06-14T06:55:01;7.82;;;3.63;;
21181;SDS011;10749;46.296;7.524;2023-06-14T06:57:27;5.78;;;3.28;;
21181;SDS011;10749;46.296;7.524;2023-06-14T06:59:54;5.38;;;3.30;;
21181;SDS011;10749;46.296;7.524;2023-06-14T07:02:19;3.78;;;3.38;;
21181;SDS011;10749;46.296;7.524;2023-06-14T07:04:45;4.05;;;3.17;;
21181;SDS011;10749;46.296;7.524;2023-06-14T07:07:10;4.90;;;3.63;;
21181;SDS011;10749;46.296;7.524;2023-06-14T07:09:35;3.75;;;3.33;;
21181;SDS011;10749;46.296;7.524;2023-06-14T07:12:01;3.95;;;3.55;;
21181;SDS011;10749;46.296;7.524;2023-06-14T07:14:26;4.13;;;3.55;;
21181;SDS011;10749;46.296;7.524;2023-06-14T07:16:52;4.32;;;3.10;;
21181;SDS011;10749;46.296;7.524;2023-06-14T07:19:17;4.70;;;3.50;;
21181;SDS011;10749;46.296;7.524;2023-06-14T07:21:43;4.75;;;3.72;;
21181;SDS011;10749;46.296;7.524;2023-06-14T07:24:08;6.30;;;3.72;;
21181;SDS011;10749;46.296;7.524;2023-06-14T07:26:33;5.47;;;3.50;;
21181;SDS011;10749;46.296;7.524;2023-06-14T07:29:00;7.03;;;3.50;;
21181;SDS011;10749;46.296;7.524;2023-06-14T07:31:25;3.53;;;3.22;;
21181;SDS011;10749;46.296;7.524;2023-06-14T07:33:51;4.93;;;4.10;;
21181;SDS011;10749;46.296;7.524;2023-06-14T07:36:16;6.32;;;3.38;;
21181;SDS011;10749;46.296;7.524;2023-06-14T07:38:42;5.05;;;3.58;;
21181;SDS011;10749;46.296;7.524;2023-06-14T07:41:08;4.22;;;3.83;;
21181;SDS011;10749;46.296;7.524;2023-06-14T07:43:33;5.13;;;3.40;;
21181;SDS011;10749;46.296;7.524;2023-06-14T07:45:59;6.38;;;4.05;;
21181;SDS011;10749;46.296;7.524;2023-06-14T07:48:24;4.10;;;3.45;;
21181;SDS011;10749;46.296;7.524;2023-06-14T07:50:50;4.05;;;3.33;;
21181;SDS011;10749;46.296;7.524;2023-06-14T07:53:15;4.95;;;3.45;;
21181;SDS011;10749;46.296;7.524;2023-06-14T07:55:41;4.78;;;3.97;;
21181;SDS011;10749;46.296;7.524;2023-06-14T07:58:08;5.45;;;3.63;;
21181;SDS011;10749;46.296;7.524;2023-06-14T08:00:33;5.28;;;4.07;;
21181;SDS011;10749;46.296;7.524;2023-06-14T08:02:59;5.90;;;4.10;;
21181;SDS011;10749;46.296;7.524;2023-06-14T08:05:27;4.30;;;3.90;;
21181;SDS011;10749;46.296;7.524;2023-06-14T08:07:53;4.32;;;3.78;;
21181;SDS011;10749;46.296;7.524;2023-06-14T08:10:18;4.45;;;3.83;;
21181;SDS011;10749;46.296;7.524;2023-06-14T08:12:44;4.05;;;3.70;;
21181;SDS011;10749;46.296;7.524;2023-06-14T08:15:09;4.85;;;4.13;;
21181;SDS011;10749;46.296;7.524;2023-06-14T08:17:35;5.25;;;4.07;;
21181;SDS011;10749;46.296;7.524;2023-06-14T08:20:01;4.40;;;3.60;;
21181;SDS011;10749;46.296;7.524;2023-06-14T08:22:27;6.72;;;4.13;;
21181;SDS011;10749;46.296;7.524;2023-06-14T08:24:56;6.10;;;4.70;;
21181;SDS011;10749;46.296;7.524;2023-06-14T08:27:22;6.07;;;4.30;;
21181;SDS011;10749;46.296;7.524;2023-06-14T08:29:47;5.43;;;4.43;;
21181;SDS011;10749;46.296;7.524;2023-06-14T08:32:12;6.10;;;4.30;;
21181;SDS011;10749;46.296;7.524;2023-06-14T08:34:38;4.88;;;4.38;;
21181;SDS011;10749;46.296;7.524;2023-06-14T08:37:03;7.03;;;4.60;;
21181;SDS011;10749;46.296;7.524;2023-06-14T08:39:29;5.30;;;4.50;;
21181;SDS011;10749;46.296;7.524;2023-06-14T08:41:54;5.45;;;4.68;;
21181;SDS011;10749;46.296;7.524;2023-06-14T08:44:21;7.60;;;4.90;;
21181;SDS011;10749;46.296;7.524;2023-06-14T08:46:47;6.72;;;4.97;;
21181;SDS011;10749;46.296;7.524;2023-06-14T08:49:13;5.20;;;4.70;;
21181;SDS011;10749;46.296;7.524;2023-06-14T08:51:41;6.45;;;5.07;;
21181;SDS011;10749;46.296;7.524;2023-06-14T08:54:08;5.55;;;4.93;;
21181;SDS011;10749;46.296;7.524;2023-06-14T08:56:35;5.35;;;4.60;;
21181;SDS011;10749;46.296;7.524;2023-06-14T08:59:02;5.43;;;4.32;;
21181;SDS011;10749;46.296;7.524;2023-06-14T09:01:30;5.20;;;4.13;;
21181;SDS011;10749;46.296;7.524;2023-06-14T09:03:59;5.07;;;4.43;;
21181;SDS011;10749;46.296;7.524;2023-06-14T09:06:24;7.55;;;4.68;;
21181;SDS011;10749;46.296;7.524;2023-06-14T09:08:50;4.85;;;4.22;;
21181;SDS011;10749;46.296;7.524;2023-06-14T09:11:16;5.60;;;4.43;;
21181;SDS011;10749;46.296;7.524;2023-06-14T09:13:44;5.25;;;4.75;;
21181;SDS011;10749;46.296;7.524;2023-06-14T09:16:10;7.38;;;4.68;;
21181;SDS011;10749;46.296;7.524;2023-06-14T09:21:06;4.85;;;4.20;;
21181;SDS011;10749;46.296;7.524;2023-06-14T09:23:33;5.82;;;4.65;;
21181;SDS011;10749;46.296;7.524;2023-06-14T09:26:05;5.05;;;4.45;;
21181;SDS011;10749;46.296;7.524;2023-06-14T09:28:32;8.57;;;4.78;;
21181;SDS011;10749;46.296;7.524;2023-06-14T09:30:57;5.50;;;4.80;;
21181;SDS011;10749;46.296;7.524;2023-06-14T09:33:23;5.95;;;4.40;;
21181;SDS011;10749;46.296;7.524;2023-06-14T09:35:51;6.95;;;4.40;;
21181;SDS011;10749;46.296;7.524;2023-06-14T09:38:17;5.25;;;4.07;;
21181;SDS011;10749;46.296;7.524;2023-06-14T09:40:42;4.82;;;4.43;;
21181;SDS011;10749;46.296;7.524;2023-06-14T09:43:08;6.65;;;4.45;;
21181;SDS011;10749;46.296;7.524;2023-06-14T09:45:34;6.32;;;4.80;;
21181;SDS011;10749;46.296;7.524;2023-06-14T09:48:00;8.05;;;4.32;;
21181;SDS011;10749;46.296;7.524;2023-06-14T09:50:26;4.65;;;4.20;;
21181;SDS011;10749;46.296;7.524;2023-06-14T09:52:52;6.32;;;4.43;;
21181;SDS011;10749;46.296;7.524;2023-06-14T09:55:22;7.05;;;4.78;;
21181;SDS011;10749;46.296;7.524;2023-06-14T09:57:50;4.93;;;4.43;;
21181;SDS011;10749;46.296;7.524;2023-06-14T10:00:17;4.63;;;4.15;;
21181;SDS011;10749;46.296;7.524;2023-06-14T10:02:45;10.07;;;6.72;;
21181;SDS011;10749;46.296;7.524;2023-06-14T10:05:18;6.10;;;5.32;;
21181;SDS011;10749;46.296;7.524;2023-06-14T10:07:52;8.45;;;5.95;;
21181;SDS011;10749;46.296;7.524;2023-06-14T10:10:24;12.90;;;7.72;;
21181;SDS011;10749;46.296;7.524;2023-06-14T10:12:50;14.18;;;7.75;;
21181;SDS011;10749;46.296;7.524;2023-06-14T10:15:20;6.43;;;5.22;;
21181;SDS011;10749;46.296;7.524;2023-06-14T10:24:22;6.80;;;5.50;;
21181;SDS011;10749;46.296;7.524;2023-06-14T10:26:53;7.55;;;5.72;;
21181;SDS011;10749;46.296;7.524;2023-06-14T10:29:21;14.18;;;8.13;;
21181;SDS011;10749;46.296;7.524;2023-06-14T10:31:47;10.98;;;7.15;;
21181;SDS011;10749;46.296;7.524;2023-06-14T10:34:32;9.25;;;5.95;;
21181;SDS011;10749;46.296;7.524;2023-06-14T10:37:11;11.55;;;7.07;;
21181;SDS011;10749;46.296;7.524;2023-06-14T10:39:41;12.98;;;7.85;;
21181;SDS011;10749;46.296;7.524;2023-06-14T10:42:08;10.60;;;6.65;;
21181;SDS011;10749;46.296;7.524;2023-06-14T10:47:20;9.02;;;6.50;;
21181;SDS011;10749;46.296;7.524;2023-06-14T10:50:11;5.32;;;4.47;;
21181;SDS011;10749;46.296;7.524;2023-06-14T10:52:39;6.40;;;5.63;;
21181;SDS011;10749;46.296;7.524;2023-06-14T10:55:10;7.50;;;5.90;;
21181;SDS011;10749;46.296;7.524;2023-06-14T10:57:46;6.53;;;5.03;;
21181;SDS011;10749;46.296;7.524;2023-06-14T11:00:16;7.18;;;5.78;;
21181;SDS011;10749;46.296;7.524;2023-06-14T11:05:48;8.25;;;5.93;;
21181;SDS011;10749;46.296;7.524;2023-06-14T11:11:08;8.77;;;5.22;;
21181;SDS011;10749;46.296;7.524;2023-06-14T11:13:34;7.75;;;5.03;;
21181;SDS011;10749;46.296;7.524;2023-06-14T11:16:03;6.25;;;4.35;;
21181;SDS011;10749;46.296;7.524;2023-06-14T11:18:36;5.40;;;4.90;;
21181;SDS011;10749;46.296;7.524;2023-06-14T11:21:01;7.38;;;5.38;;
21181;SDS011;10749;46.296;7.524;2023-06-14T11:23:27;7.85;;;5.03;;
21181;SDS011;10749;46.296;7.524;2023-06-14T11:25:53;6.20;;;4.78;;
21181;SDS011;10749;46.296;7.524;2023-06-14T11:28:18;7.18;;;4.70;;
21181;SDS011;10749;46.296;7.524;2023-06-14T11:30:48;5.78;;;4.50;;
21181;SDS011;10749;46.296;7.524;2023-06-14T11:33:24;5.57;;;4.70;;
21181;SDS011;10749;46.296;7.524;2023-06-14T11:35:50;7.75;;;4.70;;
21181;SDS011;10749;46.296;7.524;2023-06-14T11:38:16;7.93;;;4.22;;
21181;SDS011;10749;46.296;7.524;2023-06-14T11:40:41;6.97;;;4.75;;
21181;SDS011;10749;46.296;7.524;2023-06-14T11:43:07;5.57;;;4.40;;
21181;SDS011;10749;46.296;7.524;2023-06-14T11:45:32;5.28;;;4.00;;
21181;SDS011;10749;46.296;7.524;2023-06-14T11:47:58;4.22;;;3.83;;
21181;SDS011;10749;46.296;7.524;2023-06-14T11:50:24;4.97;;;4.07;;
21181;SDS011;10749;46.296;7.524;2023-06-14T11:52:54;5.90;;;3.72;;
21181;SDS011;10749;46.296;7.524;2023-06-14T11:55:21;4.03;;;3.65;;
21181;SDS011;10749;46.296;7.524;2023-06-14T11:57:47;5.90;;;3.70;;
21181;SDS011;10749;46.296;7.524;2023-06-14T12:00:12;3.60;;;3.30;;
21181;SDS011;10749;46.296;7.524;2023-06-14T12:02:40;4.32;;;3.70;;
21181;SDS011;10749;46.296;7.524;2023-06-14T12:05:06;3.97;;;3.33;;
21181;SDS011;10749;46.296;7.524;2023-06-14T12:07:34;6.90;;;3.70;;
21181;SDS011;10749;46.296;7.524;2023-06-14T12:12:27;4.95;;;3.47;;
21181;SDS011;10749;46.296;7.524;2023-06-14T12:14:54;5.93;;;3.80;;
21181;SDS011;10749;46.296;7.524;2023-06-14T12:17:23;7.55;;;3.88;;
21181;SDS011;10749;46.296;7.524;2023-06-14T12:19:49;4.82;;;3.28;;
21181;SDS011;10749;46.296;7.524;2023-06-14T12:22:15;3.83;;;3.40;;
21181;SDS011;10749;46.296;7.524;2023-06-14T12:24:42;4.25;;;3.50;;
21181;SDS011;10749;46.296;7.524;2023-06-14T12:27:08;4.68;;;3.53;;
21181;SDS011;10749;46.296;7.524;2023-06-14T12:29:33;3.95;;;3.50;;
21181;SDS011;10749;46.296;7.524;2023-06-14T12:32:00;4.32;;;3.60;;
21181;SDS011;10749;46.296;7.524;2023-06-14T12:34:25;3.50;;;3.20;;
21181;SDS011;10749;46.296;7.524;2023-06-14T12:36:52;5.07;;;3.17;;
21181;SDS011;10749;46.296;7.524;2023-06-14T12:39:21;5.55;;;3.63;;
21181;SDS011;10749;46.296;7.524;2023-06-14T12:41:47;4.57;;;3.20;;
21181;SDS011;10749;46.296;7.524;2023-06-14T12:44:13;6.18;;;3.35;;
21181;SDS011;10749;46.296;7.524;2023-06-14T12:46:39;6.93;;;3.40;;
21181;SDS011;10749;46.296;7.524;2023-06-14T12:49:07;4.28;;;3.20;;
21181;SDS011;10749;46.296;7.524;2023-06-14T12:51:33;4.22;;;3.30;;
21181;SDS011;10749;46.296;7.524;2023-06-14T12:53:58;4.82;;;3.03;;
21181;SDS011;10749;46.296;7.524;2023-06-14T12:56:23;4.50;;;3.50;;
21181;SDS011;10749;46.296;7.524;2023-06-14T12:58:49;4.05;;;3.35;;
21181;SDS011;10749;46.296;7.524;2023-06-14T13:01:14;3.40;;;3.10;;
21181;SDS011;10749;46.296;7.524;2023-06-14T13:03:40;7.28;;;3.30;;
21181;SDS011;10749;46.296;7.524;2023-06-14T13:06:07;3.97;;;3.05;;
21181;SDS011;10749;46.296;7.524;2023-06-14T13:08:32;5.70;;;3.42;;
21181;SDS011;10749;46.296;7.524;2023-06-14T13:10:57;5.05;;;3.30;;
21181;SDS011;10749;46.296;7.524;2023-06-14T13:13:23;4.85;;;3.30;;
21181;SDS011;10749;46.296;7.524;2023-06-14T13:15:48;5.20;;;3.38;;
21181;SDS011;10749;46.296;7.524;2023-06-14T13:18:14;5.40;;;3.53;;
21181;SDS011;10749;46.296;7.524;2023-06-14T13:20:40;5.07;;;3.17;;
21181;SDS011;10749;46.296;7.524;2023-06-14T13:23:05;3.75;;;2.95;;
21181;SDS011;10749;46.296;7.524;2023-06-14T13:25:32;3.90;;;2.95;;
21181;SDS011;10749;46.296;7.524;2023-06-14T13:27:59;4.97;;;3.35;;
21181;SDS011;10749;46.296;7.524;2023-06-14T13:30:24;4.55;;;2.95;;
21181;SDS011;10749;46.296;7.524;2023-06-14T13:32:49;4.57;;;3.83;;
21181;SDS011;10749;46.296;7.524;2023-06-14T13:35:16;5.30;;;3.85;;
21181;SDS011;10749;46.296;7.524;2023-06-14T13:37:42;7.88;;;3.53;;
21181;SDS011;10749;46.296;7.524;2023-06-14T13:40:08;5.82;;;3.60;;
21181;SDS011;10749;46.296;7.524;2023-06-14T13:42:33;5.25;;;3.50;;
21181;SDS011;10749;46.296;7.524;2023-06-14T13:44:59;7.32;;;3.63;;
21181;SDS011;10749;46.296;7.524;2023-06-14T13:47:24;6.18;;;3.60;;
21181;SDS011;10749;46.296;7.524;2023-06-14T13:49:49;6.28;;;3.50;;
21181;SDS011;10749;46.296;7.524;2023-06-14T13:52:15;3.80;;;3.28;;
21181;SDS011;10749;46.296;7.524;2023-06-14T13:54:40;5.10;;;3.72;;
21181;SDS011;10749;46.296;7.524;2023-06-14T13:57:07;5.78;;;3.80;;
21181;SDS011;10749;46.296;7.524;2023-06-14T13:59:32;6.22;;;3.55;;
21181;SDS011;10749;46.296;7.524;2023-06-14T14:01:58;6.88;;;3.60;;
21181;SDS011;10749;46.296;7.524;2023-06-14T14:04:23;4.50;;;3.60;;
21181;SDS011;10749;46.296;7.524;2023-06-14T14:06:48;8.65;;;3.97;;
21181;SDS011;10749;46.296;7.524;2023-06-14T14:09:14;8.50;;;3.50;;
21181;SDS011;10749;46.296;7.524;2023-06-14T14:11:39;6.82;;;3.72;;
21181;SDS011;10749;46.296;7.524;2023-06-14T14:14:06;7.10;;;3.70;;
21181;SDS011;10749;46.296;7.524;2023-06-14T14:16:31;4.95;;;3.15;;
21181;SDS011;10749;46.296;7.524;2023-06-14T14:18:57;5.32;;;3.03;;
21181;SDS011;10749;46.296;7.524;2023-06-14T14:21:22;7.38;;;3.40;;
21181;SDS011;10749;46.296;7.524;2023-06-14T14:23:48;5.10;;;3.38;;
21181;SDS011;10749;46.296;7.524;2023-06-14T14:26:14;3.88;;;3.38;;
21181;SDS011;10749;46.296;7.524;2023-06-14T14:28:41;3.53;;;3.00;;
21181;SDS011;10749;46.296;7.524;2023-06-14T14:31:06;5.25;;;3.33;;
21181;SDS011;10749;46.296;7.524;2023-06-14T14:33:31;4.80;;;3.30;;
21181;SDS011;10749;46.296;7.524;2023-06-14T14:35:56;6.85;;;3.55;;
21181;SDS011;10749;46.296;7.524;2023-06-14T14:38:22;3.92;;;3.53;;
21181;SDS011;10749;46.296;7.524;2023-06-14T14:40:47;4.95;;;3.33;;
21181;SDS011;10749;46.296;7.524;2023-06-14T14:43:12;3.92;;;3.28;;
21181;SDS011;10749;46.296;7.524;2023-06-14T14:45:38;5.13;;;3.00;;
21181;SDS011;10749;46.296;7.524;2023-06-14T14:48:03;7.40;;;3.50;;
21181;SDS011;10749;46.296;7.524;2023-06-14T14:50:29;4.10;;;3.13;;
21181;SDS011;10749;46.296;7.524;2023-06-14T14:52:54;5.80;;;3.63;;
21181;SDS011;10749;46.296;7.524;2023-06-14T14:55:19;4.85;;;3.33;;
21181;SDS011;10749;46.296;7.524;2023-06-14T14:57:45;4.78;;;3.20;;
21181;SDS011;10749;46.296;7.524;2023-06-14T15:00:11;4.93;;;3.10;;
21181;SDS011;10749;46.296;7.524;2023-06-14T15:02:36;3.25;;;2.85;;
21181;SDS011;10749;46.296;7.524;2023-06-14T15:05:01;4.72;;;3.40;;